19:33
Airports
History
Links
Donate
Help keep this website running!
PayPal
Bitcoin
Information on this page is community maintained and may be outdated or inaccurate and is intended for reference only or PC simulator navigating.
Always use approved charts for navigating.
LIEA
ALGHERO
ALGHERO (LIEA)
Alghero, Sardegna, Italy (7041)
(C)
Lat/Lng:40° 37' 55.68" N / 8° 17' 26.79" E
40.632132 / 8.290774
Elevation:87'ft 27mMSL
ID / ICAO:LIEA
Runways:1
Longest:(02-20) 2,993.4m 9,821ft Asphalt
Controlled:Yes
Distance To
Airport ID:
Airport Radio Frequencies
ATIS: 125.02
Tower: 118.85
Approach: 128.55
Nearby VORs <50NM
Nearby NDBs
METARUpdated 05-27-17 19:20 GMT
Altimeter: 30.06
Visibility: 6.2 statute miles
Wind: 6 knots (020°)
Temp: 22°c 72°f
Humidity: 40.6%

METAR: LIEA 271920Z 02006KT 340V040 CAVOK 22/08 Q1018

(Powered by phpweather)
Runway 02 / 20
Dimensions:2993.4 x 45.1m 9821' x 148'ft
Surface:Asphalt
Edge Lights:Medium intensity
Runway 02 [A]Runway 20 [B]
Heading:024°TH 204°TH
Lat:
Lng:
40° 37' 11.45"N
8° 17' 0.21"E
40° 38' 39.9"N
8° 17' 53.36"E
ALS:ALSF-I
TDZ:Yes, lighted
User Notes and Comments
Google Map
Nearby Airports
(U) Oristano Fenosu 54.3 NM
LIER SSE 160°
(C) OLBIA COSTA SMERALDA 66.8 NM
LIEO (WX) ENE 73°
(C) Cavallo 71.8 NM
2051 NE 44°
(C) Figari Sud Corse 73.3 NM
LFKF (WX) NE 34°
(C) Propriano 77.6 NM
LFKO NNE 23°
(C) TORTOLI 88.4 NM
LIET ESE 123°
(C) Napoleon Bonaparte 92.9 NM
LFKJ (WX) NNE 16°
VFR Chart
Flight Planning at SkyVector.com